KSUA/SUA METAR and TAF weather

Enter ICAO airport designator
Station Type Date Time Source
KSUA METAR 2019/08/22 19:47 UTC NOAA

KSUA 221947Z 09009KT 7SM VCSH SCT028 30/24 A3003


Station Type Date Time Source
KSUA Decoded METAR 2019/08/22 19:47 UTC NOAA

Station name not available
Aug 22, 2019 - 03:47 PM EDT / 2019.08.22 1947 UTC
Wind: from the E (090 degrees) at 10 MPH (9 KT):0
Visibility: 7 mile(s):0
Sky conditions: partly cloudy
Weather: showers in the vicinity
Temperature: 86 F (30 C)
Heat index: 95.0 F (35.0 C):1
Dew Point: 75 F (24 C)
Relative Humidity: 70%
Pressure (altimeter): 30.03 in. Hg (1016 hPa)
ob: KSUA 221947Z 09009KT 7SM VCSH SCT028 30/24 A3003
cycle: 20

Station Type Date Time Source
KSUA TAF 2019/08/22 19:12 UTC NOAA

TAF
AMD KSUA 221911Z 2219/2318 07010KT P6SM VCSH BKN030
FM222000 08011KT P6SM SCT035 SCT250
FM230300 08004KT P6SM VCSH SCT025 SCT250
FM231400 10009KT P6SM SCT030 SCT250

Example: see airport list